Flight Track Log - Related Links

Times and Time Zones

All times are in EDT time to prevent confusion due to time zone crossing. See the SWA193 flight status page for this flight to view local times or setup timezone preferences in your user account.

Time Position Orientation Groundspeed Altitude Reporting Facility
EDT Latitude Longitude Course Direction KTS MPH feet Rate Location/Type
Wed 07:38:12 AM 26.0750 -80.1389 89° East 148 170 1,000  Level Miami Center
Wed 07:38:54 AM 26.0758 -80.1019 89° East 175 201 2,300 2,206 Climbing Miami Center
Wed 07:39:20 AM 26.0825 -80.0722 76° East 200 230 3,500 2,581 Climbing Miami Center
Wed 07:40:20 AM 26.1031 -79.9986 73° East 223 257 6,000 3,350 Climbing Miami Center
Wed 07:41:20 AM 26.1422 -79.9233 60° Northeast 254 292 10,200 3,550 Climbing Miami Center
Wed 07:42:20 AM 26.1817 -79.8364 63° Northeast 286 329 13,100 2,900 Climbing Miami Center
Wed 07:43:20 AM 26.2253 -79.7403 63° Northeast 319 367 16,000 1,650 Climbing Miami Center
Wed 07:44:20 AM 26.2622 -79.6622 62° Northeast 336 387 16,400 1,950 Climbing Miami Center
Wed 07:45:20 AM 26.3311 -79.5572 54° Northeast 353 406 19,900 3,100 Climbing Miami Center
Wed 07:46:20 AM 26.4117 -79.4989 33° Northeast 367 422 22,600 2,750 Climbing Miami Center
Wed 07:47:20 AM 26.5111 -79.4267 33° Northeast 385 443 25,400 2,500 Climbing Miami Center
Wed 07:48:20 AM 26.6083 -79.3614 31° Northeast 395 455 27,600 1,950 Climbing Miami Center
Wed 07:49:20 AM 26.7036 -79.2914 33° Northeast 406 467 29,300 2,100 Climbing Miami Center
Wed 07:50:20 AM 26.8092 -79.2192 31° Northeast 418 481 31,800 2,350 Climbing Miami Center
Wed 07:51:20 AM 26.9083 -79.1489 32° Northeast 418 481 34,000 1,600 Climbing Miami Center
Wed 07:52:20 AM 27.0119 -79.0764 32° Northeast 424 488 35,000 1,050 Climbing Miami Center
Wed 07:53:20 AM 27.1047 -79.0058 34° Northeast 439 505 36,100 1,150 Climbing Miami Center
Wed 07:54:20 AM 27.2144 -78.9308 31° Northeast 454 522 37,300 1,450 Climbing Miami Center
Wed 07:55:20 AM 27.3425 -78.8861 17° North 447 514 39,000 1,450 Climbing Miami Center
Wed 07:56:20 AM 27.4639 -78.8625 10° North 436 502 40,200 1,000 Climbing Miami Center
Wed 07:57:20 AM 27.5833 -78.8389 10° North 431 496 41,000 400 Climbing Miami Center
Wed 07:58:20 AM 27.6942 -78.8197 North 431 496 41,000  Level Miami Center
Wed 07:59:20 AM 27.8261 -78.7961 North 431 496 41,000  Level Miami Center
Wed 08:00:20 AM 27.9350 -78.7744 10° North 431 496 41,000  Level Miami Center
Wed 08:01:20 AM 28.0542 -78.7553 North 431 496 41,000  Level Miami Center
Wed 08:02:20 AM 28.1736 -78.7314 10° North 431 496 41,000  Level Miami Center
Wed 08:03:20 AM 28.2886 -78.7122 North 425 489 41,000  Level Miami Center
Wed 08:04:20 AM 28.4164 -78.6906 North 433 498 41,000  Level Miami Center
Wed 08:05:20 AM 28.5272 -78.6664 11° North 423 487 41,000  Level Miami Center
Wed 08:06:20 AM 28.6506 -78.6447 North 434 499 41,000  Level Miami Center
Wed 08:07:20 AM 28.7697 -78.6231 North 429 494 41,000  Level Miami Center
Wed 08:08:20 AM 28.8911 -78.5989 10° North 429 494 41,000  Level Miami Center
Wed 08:09:20 AM 29.0189 -78.5722 10° North 420 483 41,000  Level Miami Center
Wed 08:10:20 AM 29.1483 -78.5483 North 431 496 41,000  Level Miami Center
Wed 08:11:20 AM 29.2633 -78.5261 10° North 430 495 41,000  Level Miami Center
Wed 08:12:20 AM 29.3825 -78.5017 10° North 437 503 41,000  Level Miami Center
Wed 08:13:20 AM 29.4975 -78.4819 North 416 479 41,000  Level Miami Center
Wed 08:14:20 AM 29.6231 -78.4578 North 416 479 41,000  Level Miami Center
Wed 08:15:07 AM 29.7128 -78.4356 12° North 431 496 41,000  Level Jacksonville Center
Wed 08:16:07 AM 29.8417 -78.4200 North 436 502 41,000  Level Jacksonville Center
Wed 08:17:07 AM 29.9619 -78.3978 North 436 502 41,000  Level Jacksonville Center
Wed 08:18:07 AM 30.0733 -78.3636 15° North 436 502 41,000  Level Jacksonville Center
Wed 08:19:07 AM 30.1978 -78.3411 North 442 509 41,000  Level Jacksonville Center
Wed 08:20:07 AM 30.3244 -78.3231 North 442 509 41,000  Level Jacksonville Center
Wed 08:21:07 AM 30.4467 -78.3003 North 442 509 41,000  Level Jacksonville Center
Wed 08:22:07 AM 30.5669 -78.2753 10° North 442 509 41,000  Level Jacksonville Center
Wed 08:23:07 AM 30.6892 -78.2525 North 440 506 41,000  Level Jacksonville Center
Wed 08:24:07 AM 30.8094 -78.2297 North 440 506 41,000  Level Jacksonville Center
Wed 08:25:07 AM 30.9275 -78.2019 11° North 439 505 41,000  Level Jacksonville Center
Wed 08:26:07 AM 31.0372 -78.1772 11° North 439 505 41,000  Level Jacksonville Center
Wed 08:27:07 AM 31.1575 -78.1567 North 439 505 41,000  Level Jacksonville Center
Wed 08:28:07 AM 31.2756 -78.1311 10° North 434 499 41,000  Level Jacksonville Center
Wed 08:29:07 AM 31.3958 -78.1106 North 434 499 41,000  Level Jacksonville Center
Wed 08:30:07 AM 31.5136 -78.0825 11° North 429 494 41,000  Level Jacksonville Center
Wed 08:31:07 AM 31.6339 -78.0592 North 429 494 41,000  Level Jacksonville Center
Wed 08:32:07 AM 31.7517 -78.0311 11° North 429 494 41,000  Level Jacksonville Center
Wed 08:33:07 AM 31.8719 -78.0100 North 429 494 41,000  Level Jacksonville Center
Wed 08:34:07 AM 31.9922 -77.9864 North 429 494 41,000  Level Jacksonville Center
Wed 08:35:07 AM 32.1103 -77.9606 11° North 429 494 41,000  Level Jacksonville Center
Wed 08:36:07 AM 32.2325 -77.9417 North 429 494 41,000  Level Jacksonville Center
Wed 08:37:07 AM 32.3547 -77.9153 10° North 429 494 41,000  Level Jacksonville Center
Wed 08:38:07 AM 32.4747 -77.8917 North 429 494 41,000  Level Jacksonville Center
Wed 08:39:07 AM 32.5947 -77.8628 11° North 435 501 41,000  Level Jacksonville Center
Wed 08:40:07 AM 32.7128 -77.8414 North 435 501 41,000  Level Jacksonville Center
Wed 08:41:07 AM 32.8281 -77.8003 17° North 430 495 41,000  Level Jacksonville Center
Wed 08:42:07 AM 32.9428 -77.7492 20° North 430 495 41,000  Level Jacksonville Center
Wed 08:43:07 AM 33.0578 -77.7006 20° North 430 495 41,000  Level Jacksonville Center
Wed 08:44:38 AM 33.2389 -77.6275 19° North 440 506 41,000  Level Washington Center
Wed 08:45:38 AM 33.3564 -77.5756 20° North 435 501 41,000  Level Washington Center
Wed 08:46:38 AM 33.4742 -77.5236 20° North 435 501 41,000  Level Washington Center
Wed 08:47:38 AM 33.5875 -77.4764 19° North 435 501 41,000  Level Washington Center
Wed 08:48:38 AM 33.7050 -77.4267 19° North 435 501 41,000  Level Washington Center
Wed 08:49:38 AM 33.8228 -77.3767 19° North 435 501 41,000  Level Washington Center
Wed 08:50:38 AM 33.9381 -77.3292 19° North 435 501 41,000  Level Washington Center
Wed 08:51:38 AM 34.0408 -77.2836 20° North 435 501 41,000  Level Washington Center
Wed 08:52:38 AM 34.1564 -77.2358 19° North 435 501 41,000  Level Washington Center
Wed 08:53:38 AM 34.2717 -77.1853 20° North 435 501 41,000  Level Washington Center
Wed 08:54:38 AM 34.3872 -77.1372 19° North 435 501 41,000  Level Washington Center
Wed 08:55:38 AM 34.5025 -77.0864 20° North 435 501 41,000  Level Washington Center
Wed 08:56:38 AM 34.6200 -77.0356 20° North 435 501 41,000  Level Washington Center
Wed 08:57:38 AM 34.7333 -76.9872 19° North 435 501 41,000  Level Washington Center
Wed 08:58:38 AM 34.8467 -76.9358 20° North 430 495 41,000  Level Washington Center
Wed 08:59:38 AM 34.9619 -76.8872 19° North 435 501 41,000  Level Washington Center
Wed 09:00:38 AM 35.0772 -76.8358 20° North 435 501 41,000  Level Washington Center
Wed 09:01:38 AM 35.2008 -76.7767 21° North 435 501 41,000  Level Washington Center
Wed 09:02:38 AM 35.3161 -76.7272 19° North 435 501 41,000  Level Washington Center
Wed 09:03:38 AM 35.4292 -76.6756 20° North 435 501 41,000  Level Washington Center
Wed 09:04:38 AM 35.5422 -76.6233 21° North 430 495 41,000  Level Washington Center
Wed 09:05:38 AM 35.6575 -76.5764 18° North 430 495 41,000  Level Washington Center
Wed 09:06:38 AM 35.7728 -76.5239 20° North 430 495 41,000  Level Washington Center
Wed 09:07:38 AM 35.8858 -76.4739 20° North 430 495 41,000  Level Washington Center
Wed 09:08:38 AM 36.0008 -76.4214 20° North 430 495 41,000  Level Washington Center
Wed 09:09:38 AM 36.1158 -76.3686 20° North 430 495 41,000  Level Washington Center
Wed 09:10:38 AM 36.2331 -76.3156 20° North 430 495 41,000  Level Washington Center
Wed 09:11:38 AM 36.3461 -76.2625 21° North 430 495 41,000  Level Washington Center
Wed 09:12:38 AM 36.4633 -76.2092 20° North 435 501 41,000  Level Washington Center
Wed 09:13:38 AM 36.5783 -76.1611 19° North 435 501 41,000  Level Washington Center
Wed 09:14:38 AM 36.6806 -76.1100 22° Northeast 440 506 41,000  Level Washington Center
Wed 09:15:38 AM 36.7956 -76.0561 21° North 434 499 41,000  Level Washington Center
Wed 09:16:38 AM 36.9106 -76.0022 21° North 434 499 41,000  Level Washington Center
Wed 09:17:38 AM 37.0317 -75.9508 19° North 440 506 41,000  Level Washington Center
Wed 09:18:38 AM 37.1569 -75.8942 20° North 446 513 41,000  Level Washington Center
Wed 09:19:38 AM 37.2614 -75.8450 21° North 446 513 41,000  Level Washington Center
Wed 09:20:38 AM 37.3764 -75.7906 21° North 446 513 41,000  Level Washington Center
Wed 09:21:38 AM 37.4931 -75.7383 20° North 446 513 41,000  Level Washington Center
Wed 09:22:38 AM 37.6058 -75.6758 24° Northeast 441 507 41,000  Level Washington Center
Wed 09:23:38 AM 37.7228 -75.6233 20° North 435 501 41,000  Level Washington Center
Wed 09:24:38 AM 37.8394 -75.5656 21° North 435 501 41,000  Level Washington Center
Wed 09:25:38 AM 37.9583 -75.5181 17° North 441 507 41,000  Level Washington Center
Wed 09:26:38 AM 38.0856 -75.4572 21° North 441 507 41,000  Level Washington Center
Wed 09:27:38 AM 38.1875 -75.3856 29° Northeast 448 516 41,000  Level Washington Center
Wed 09:28:38 AM 38.3125 -75.3058 27° Northeast 448 516 41,000  Level Washington Center
Wed 09:29:38 AM 38.4250 -75.2339 27° Northeast 448 516 41,000  Level Washington Center
Wed 09:30:38 AM 38.5372 -75.1592 28° Northeast 448 516 41,000 -450 Level Washington Center
Wed 09:31:38 AM 38.6517 -75.0919 25° Northeast 448 516 40,100 -900 Descending Washington Center
Wed 09:32:38 AM 38.7556 -75.0006 34° Northeast 448 516 39,200 -900 Descending Washington Center
Wed 09:33:38 AM 38.8528 -74.8881 42° Northeast 454 522 38,300 -950 Descending Washington Center
Wed 09:34:38 AM 38.9461 -74.7908 39° Northeast 454 522 37,300 -1,750 Descending Washington Center
Wed 09:35:38 AM 39.0389 -74.6856 41° Northeast 444 511 34,800 -2,900 Descending Washington Center
Wed 09:36:38 AM 39.1342 -74.5800 41° Northeast 444 511 31,500 -2,780 Descending Washington Center
Wed 09:37:00 AM 39.1650 -74.5439 42° Northeast 441 507 31,000 -2,268 Descending New York Center
Wed 09:38:00 AM 39.2514 -74.4519 39° Northeast 452 520 28,400 -2,593 Descending New York Center
Wed 09:38:58 AM 39.3400 -74.3492 42° Northeast 441 507 25,900 -2,492 Descending New York Center
Wed 09:39:58 AM 39.4267 -74.2486 42° Northeast 427 491 23,500 -2,331 Descending New York Center
Wed 09:40:59 AM 39.5128 -74.1533 40° Northeast 415 478 21,200 -1,587 Descending New York Center
Wed 09:41:59 AM 39.5847 -74.0436 50° Northeast 402 463 20,300 -1,300 Descending New York Center
Wed 09:42:59 AM 39.6467 -73.9117 59° Northeast 394 453 18,600 -1,488 Descending New York Center
Wed 09:44:00 AM 39.6767 -73.7969 71° East 389 448 17,300 -1,361 Descending New York Center
Wed 09:44:58 AM 39.7089 -73.6769 71° East 368 423 15,900 -1,160 Descending New York Center
Wed 09:45:59 AM 39.7778 -73.5908 44° Northeast 340 391 15,000 -443 Descending New York Center
Wed 09:47:00 AM 39.8525 -73.5128 39° Northeast 335 386 15,000  Level New York Center
Wed 09:49:15 AM 40.0297 -73.3261 39° Northeast 339 390 15,000 -429 Level Boston Center
Wed 09:50:16 AM 40.1053 -73.2486 38° Northeast 339 390 13,600 -1,780 Descending Boston Center
Wed 09:51:13 AM 40.1786 -73.1706 39° Northeast 339 390 11,500 -2,205 Descending Boston Center
Wed 09:52:13 AM 40.2458 -73.0953 41° Northeast 333 383 9,300 -1,240 Descending Boston Center
Wed 09:53:14 AM 40.3128 -73.0253 39° Northeast 328 377 9,000 -862 Descending Boston Center
Wed 09:55:21 AM 40.4500 -72.8833 38° Northeast 257 296 6,600 -1,326 Descending New York TRACON
Wed 09:56:15 AM 40.5000 -72.8333 37° Northeast 269 310 5,000 -1,250 Descending New York TRACON
Wed 09:57:21 AM 40.5500 -72.8667 333° Northwest 234 269 4,100 -762 Descending New York TRACON
Wed 09:58:21 AM 40.5833 -72.9333 303° West 224 258 3,400 -500 Descending New York TRACON
Wed 09:59:21 AM 40.6000 -73.0167 285° West 215 247 3,100 -150 Descending New York TRACON
Wed 10:00:21 AM 40.6333 -73.0833 303° West 210 242 3,100 -368 Level New York TRACON
Wed 10:01:15 AM 40.6667 -73.1333 311° West 204 235 2,400 -474 Descending New York TRACON
Wed 10:02:15 AM 40.7000 -73.1833 311° West 174 200 2,200 -286 Descending New York TRACON
Wed 10:03:21 AM 40.7333 -73.1833 360° North 148 170 1,800 -524 Descending New York TRACON
Wed 10:04:21 AM 40.7500 -73.1500 57° Northeast 127 146 1,100 -667 Descending New York TRACON
Wed 10:05:27 AM 40.7833 -73.1167 37° Northeast 122 140 400 -636 Descending New York TRACON

Login

Don't have an account? Register now (free) for customized features, flight alerts, and more!